Time;durP1;ratioP1;P1;durP2;ratioP2;P2;SDS_P1;SDS_P2;PMS_P1;PMS_P2;Temp;Humidity;BMP_temperature;BMP_pressure;BME280_temperature;BME280_humidity;BME280_pressure;Samples;Min_cycle;Max_cycle;Signal;HPM_P1;HPM_P2
2022/03/09 00:01:11;;;;;;;;;;;;;;;-8.07;49.57;102192.84;4996896;28;19925;-86
2022/03/09 00:03:37;;;;;;;;;;;;;;;-8.11;49.59;102196.72;5001161;28;19933;-86
2022/03/09 00:06:02;;;;;;;;;;;;;;;-8.11;49.28;102198.53;4997619;28;19926;-87
2022/03/09 00:08:28;;;;;;;;;;;;;;;-8.10;49.43;102206.41;5014973;28;20035;-86
2022/03/09 00:10:53;;;;;;;;;;;;;;;-8.08;49.55;102206.28;4993915;28;19965;-86
2022/03/09 00:13:19;;;;;;;;;;;;;;;-8.07;49.52;102208.81;4994730;28;19929;-86
2022/03/09 00:15:44;;;;;;;;;;;;;;;-8.06;50.03;102213.19;4993987;28;19926;-86
2022/03/09 00:18:09;;;;;;;;;;;;;;;-8.03;49.74;102218.25;4994389;28;19961;-86
2022/03/09 00:20:35;;;;;;;;;;;;;;;-8.00;49.12;102219.81;4992681;28;19976;-85
2022/03/09 00:23:00;;;;;;;;;;;;;;;-7.97;49.55;102222.28;4994471;28;19972;-86
2022/03/09 00:25:26;;;;;;;;;;;;;;;-7.96;49.67;102218.63;4992832;28;19932;-87
2022/03/09 00:27:51;;;;;;;;;;;;;;;-7.94;48.80;102219.34;4994160;28;19929;-86
2022/03/09 00:30:17;;;;;;;;;;;;;;;-7.90;49.77;102228.78;4994316;28;20023;-87
2022/03/09 00:32:42;;;;;;;;;;;;;;;-7.88;49.22;102224.19;4994009;28;19929;-86
2022/03/09 00:35:08;;;;;;;;;;;;;;;-7.84;49.75;102220.31;4993932;28;19930;-87
2022/03/09 00:37:34;;;;;;;;;;;;;;;-7.84;49.78;102222.97;4991471;28;19941;-85
2022/03/09 00:39:59;;;;;;;;;;;;;;;-7.83;49.31;102221.16;5011879;28;19925;-86
2022/03/09 00:42:25;;;;;;;;;;;;;;;-7.82;49.57;102220.19;4994361;28;20032;-86
2022/03/09 00:44:50;;;;;;;;;;;;;;;-7.80;49.33;102226.25;4994191;28;20028;-86
2022/03/09 00:47:16;;;;;;;;;;;;;;;-7.80;49.49;102228.91;4993971;28;19933;-86
2022/03/09 00:49:41;;;;;;;;;;;;;;;-7.80;49.04;102227.09;4992502;28;19925;-87
2022/03/09 00:52:06;;;;;;;;;;;;;;;-7.80;49.27;102228.91;4993629;28;20380;-87
2022/03/09 00:54:32;;;;;;;;;;;;;;;-7.79;49.59;102227.94;4993295;28;20421;-87
2022/03/09 00:56:57;;;;;;;;;;;;;;;-7.81;49.56;102227.19;4993073;28;19929;-86
2022/03/09 00:59:23;;;;;;;;;;;;;;;-7.83;49.64;102219.31;4992476;28;19925;-86
2022/03/09 01:01:48;;;;;;;;;;;;;;;-7.83;49.54;102214.00;4993248;28;19926;-87
2022/03/09 01:04:14;;;;;;;;;;;;;;;-7.83;49.63;102218.47;4993292;28;19926;-88
2022/03/09 01:06:39;;;;;;;;;;;;;;;-7.84;49.59;102222.13;4993276;28;19926;-86
2022/03/09 01:09:05;;;;;;;;;;;;;;;-7.84;49.72;102230.09;4999962;28;19932;-84
2022/03/09 01:11:30;;;;;;;;;;;;;;;-7.85;49.65;102228.41;4991319;28;19933;-84
2022/03/09 01:13:57;;;;;;;;;;;;;;;-7.85;49.79;102231.94;5001494;28;20024;-84
2022/03/09 01:16:22;;;;;;;;;;;;;;;-7.85;49.75;102234.59;5001799;28;19948;-85
2022/03/09 01:18:48;;;;;;;;;;;;;;;-7.84;49.46;102227.44;4991919;28;20379;-86
2022/03/09 01:21:13;;;;;;;;;;;;;;;-7.87;50.15;102228.53;4991684;28;20028;-85
2022/03/09 01:23:39;;;;;;;;;;;;;;;-7.89;50.19;102233.16;4992625;28;19927;-86
2022/03/09 01:26:04;;;;;;;;;;;;;;;-7.91;49.83;102230.63;4992949;28;20464;-85
2022/03/09 01:28:30;;;;;;;;;;;;;;;-7.90;49.85;102231.47;4992561;28;20433;-85
2022/03/09 01:30:55;;;;;;;;;;;;;;;-7.91;49.48;102227.09;4992503;28;19922;-85
2022/03/09 01:33:21;;;;;;;;;;;;;;;-7.91;49.96;102235.94;4992680;28;19926;-85
2022/03/09 01:35:46;;;;;;;;;;;;;;;-7.88;49.89;102237.50;4989807;28;20451;-85
2022/03/09 01:38:12;;;;;;;;;;;;;;;-7.90;49.87;102237.63;4992162;28;20329;-86
2022/03/09 01:40:37;;;;;;;;;;;;;;;-7.88;50.18;102236.66;5007090;28;20012;-85
2022/03/09 01:43:02;;;;;;;;;;;;;;;-7.91;49.93;102237.75;4991768;28;19972;-85
2022/03/09 01:45:28;;;;;;;;;;;;;;;-7.90;50.06;102236.78;4991955;28;19937;-85
2022/03/09 01:47:54;;;;;;;;;;;;;;;-7.91;49.76;102237.75;4990759;28;20040;-85
2022/03/09 01:50:19;;;;;;;;;;;;;;;-7.88;49.90;102236.66;4992410;28;19950;-85
2022/03/09 01:52:45;;;;;;;;;;;;;;;-7.88;50.01;102236.66;4992050;28;19980;-85
2022/03/09 01:55:11;;;;;;;;;;;;;;;-7.88;49.60;102231.34;4992144;28;19933;-85
2022/03/09 01:57:37;;;;;;;;;;;;;;;-7.88;49.85;102239.31;4991009;28;19925;-85
2022/03/09 02:00:03;;;;;;;;;;;;;;;-7.89;49.93;102230.50;4990830;28;20017;-85
2022/03/09 02:02:31;;;;;;;;;;;;;;;-7.90;50.07;102236.78;4992255;28;19925;-84
2022/03/09 02:04:56;;;;;;;;;;;;;;;-7.94;49.37;102243.34;4990422;28;20350;-85
2022/03/09 02:09:41;;;;;;;;;;;;;;;-7.98;49.25;102247.22;4992310;28;20303;-85
2022/03/09 02:10:08;;;;;;;;;;;;;;;-8.01;49.14;102253.59;4991992;28;19968;-87
2022/03/09 02:12:33;;;;;;;;;;;;;;;-8.05;49.47;102260.16;4990972;28;19925;-86
2022/03/09 02:15:00;;;;;;;;;;;;;;;-8.07;48.97;102255.91;4991941;28;19926;-86
2022/03/09 02:17:27;;;;;;;;;;;;;;;-8.13;49.11;102248.41;4991986;28;19925;-87
2022/03/09 02:19:53;;;;;;;;;;;;;;;-8.18;49.54;102250.56;4991918;28;19992;-85
2022/03/09 02:22:30;;;;;;;;;;;;;;;-8.18;49.66;102250.56;4991978;28;19968;-85
2022/03/09 02:24:56;;;;;;;;;;;;;;;-8.17;49.17;102258.44;4989469;28;19933;-85
2022/03/09 02:27:22;;;;;;;;;;;;;;;-8.17;49.59;102253.13;5006962;28;19925;-85
2022/03/09 02:29:51;;;;;;;;;;;;;;;-8.17;49.65;102257.59;4990420;28;19926;-86
2022/03/09 02:32:17;;;;;;;;;;;;;;;-8.20;49.58;102258.69;5007189;28;19980;-85
2022/03/09 02:34:42;;;;;;;;;;;;;;;-8.20;49.92;102258.69;5006888;28;19953;-85
2022/03/09 02:37:08;;;;;;;;;;;;;;;-8.18;50.20;102263.88;4990031;28;20007;-84
2022/03/09 02:39:33;;;;;;;;;;;;;;;-8.20;50.31;102261.34;4989270;28;19933;-85
2022/03/09 02:41:58;;;;;;;;;;;;;;;-8.25;50.44;102261.72;4990467;28;20085;-85
2022/03/09 02:44:24;;;;;;;;;;;;;;;-8.27;50.85;102261.00;4990491;28;20003;-86
2022/03/09 02:46:49;;;;;;;;;;;;;;;-8.28;50.52;102261.94;4992013;28;19926;-84
2022/03/09 02:49:15;;;;;;;;;;;;;;;-8.30;50.29;102266.56;5007052;28;19933;-86
2022/03/09 02:51:40;;;;;;;;;;;;;;;-8.33;50.63;102264.13;4991747;28;19941;-85
2022/03/09 02:54:06;;;;;;;;;;;;;;;-8.33;50.80;102257.94;4991674;28;19933;-86
2022/03/09 02:56:31;;;;;;;;;;;;;;;-8.34;50.89;102267.78;4980091;28;20008;-86
2022/03/09 02:58:57;;;;;;;;;;;;;;;-8.35;51.18;102273.22;4990857;28;19930;-86
2022/03/09 03:01:23;;;;;;;;;;;;;;;-8.36;50.58;102275.03;4991985;28;19976;-86
2022/03/09 03:03:48;;;;;;;;;;;;;;;-8.38;50.78;102273.44;4991898;28;20379;-86
2022/03/09 03:06:14;;;;;;;;;;;;;;;-8.41;50.90;102277.22;4991751;28;19929;-86
2022/03/09 03:08:39;;;;;;;;;;;;;;;-8.42;51.21;102286.16;4991650;28;19933;-87
2022/03/09 03:11:06;;;;;;;;;;;;;;;-8.43;51.41;102291.59;4985027;28;19926;-86
2022/03/09 03:13:32;;;;;;;;;;;;;;;-8.39;51.13;102288.56;4976291;28;19926;-88
2022/03/09 03:15:57;;;;;;;;;;;;;;;-8.34;51.61;102293.53;5006661;28;19925;-88
2022/03/09 03:18:23;;;;;;;;;;;;;;;-8.34;50.93;102299.72;4991640;28;20432;-86
2022/03/09 03:20:54;;;;;;;;;;;;;;;-8.36;50.88;102303.47;4991776;28;19981;-88
2022/03/09 03:23:24;;;;;;;;;;;;;;;-8.38;51.37;102297.41;4994534;28;19978;-88
2022/03/09 03:25:50;;;;;;;;;;;;;;;-8.37;51.37;102307.94;4995625;28;19925;-87
2022/03/09 03:28:15;;;;;;;;;;;;;;;-8.35;50.88;102316.66;4995574;28;19972;-86
2022/03/09 03:30:41;;;;;;;;;;;;;;;-8.34;50.71;102318.34;4974247;28;19989;-87
2022/03/09 03:33:06;;;;;;;;;;;;;;;-8.34;51.26;102315.69;4989896;28;19929;-87
2022/03/09 03:35:32;;;;;;;;;;;;;;;-8.30;51.38;102318.97;4994510;28;19926;-88
2022/03/09 03:37:57;;;;;;;;;;;;;;;-8.28;51.25;102325.00;5011222;28;19925;-88
2022/03/09 03:40:23;;;;;;;;;;;;;;;-8.29;51.66;102332.16;4995827;28;20028;-87
2022/03/09 03:42:48;;;;;;;;;;;;;;;-8.27;51.16;102326.69;4994377;28;19930;-87
2022/03/09 03:45:13;;;;;;;;;;;;;;;-8.26;51.37;102329.25;4995489;28;19925;-86
2022/03/09 03:47:39;;;;;;;;;;;;;;;-8.25;51.48;102338.09;5001412;28;19948;-85
2022/03/09 03:50:05;;;;;;;;;;;;;;;-8.24;51.85;102345.94;5006062;28;19934;-87
2022/03/09 03:52:30;;;;;;;;;;;;;;;-8.24;51.76;102343.28;4999283;28;19925;-85
2022/03/09 03:54:56;;;;;;;;;;;;;;;-8.25;51.83;102346.91;4997418;28;19925;-85
2022/03/09 03:57:21;;;;;;;;;;;;;;;-8.26;51.65;102345.22;4999122;28;20408;-87
2022/03/09 03:59:47;;;;;;;;;;;;;;;-8.26;52.23;102355.88;4993436;28;20446;-88
2022/03/09 04:02:12;;;;;;;;;;;;;;;-8.26;52.10;102353.22;5009741;28;19925;-87
2022/03/09 04:04:38;;;;;;;;;;;;;;;-8.24;52.17;102363.75;4988170;28;20392;-87
2022/03/09 04:07:03;;;;;;;;;;;;;;;-8.21;51.85;102364.34;5001705;28;19965;-87
2022/03/09 04:09:29;;;;;;;;;;;;;;;-8.21;52.01;102363.50;4975434;28;19926;-87
2022/03/09 04:11:54;;;;;;;;;;;;;;;-8.20;52.02;102368.72;4975602;28;19926;-88
2022/03/09 04:14:22;;;;;;;;;;;;;;;-8.19;51.87;102361.56;4973799;28;19926;-88
2022/03/09 04:16:50;;;;;;;;;;;;;;;-8.17;51.79;102374.75;4973869;28;19962;-87
2022/03/09 04:19:16;;;;;;;;;;;;;;;-8.16;52.23;102369.31;4993479;28;19925;-87
2022/03/09 04:21:42;;;;;;;;;;;;;;;-8.14;52.11;102372.75;4994940;28;19968;-87
2022/03/09 04:24:08;;;;;;;;;;;;;;;-8.20;52.05;102376.69;4995265;28;19957;-87
2022/03/09 04:26:33;;;;;;;;;;;;;;;-8.22;52.05;102380.44;5009915;28;19932;-89
2022/03/09 04:29:00;;;;;;;;;;;;;;;-8.23;52.18;102384.06;4992879;28;20010;-89
2022/03/09 04:31:25;;;;;;;;;;;;;;;-8.25;51.92;102378.88;4994484;28;20029;-90
2022/03/09 04:33:52;;;;;;;;;;;;;;;-8.24;52.02;102385.03;4993357;28;20008;-90
2022/03/09 04:36:17;;;;;;;;;;;;;;;-8.26;51.67;102393.16;4995714;28;19961;-88
2022/03/09 04:38:43;;;;;;;;;;;;;;;-8.26;52.50;102394.97;4995307;28;19926;-90
2022/03/09 04:41:08;;;;;;;;;;;;;;;-8.32;52.74;102390.97;4961543;28;20357;-90
2022/03/09 04:43:34;;;;;;;;;;;;;;;-8.33;52.46;102399.03;4994217;28;19925;-91
2022/03/09 04:45:59;;;;;;;;;;;;;;;-8.32;52.49;102403.41;4992570;28;20020;-91
2022/03/09 04:48:25;;;;;;;;;;;;;;;-8.31;52.64;102400.63;5008538;28;20068;-90
2022/03/09 04:50:50;;;;;;;;;;;;;;;-8.26;53.02;102411.78;4993306;28;20312;-89
2022/03/09 04:53:16;;;;;;;;;;;;;;;-8.12;52.44;102415.22;4989347;28;20305;-88
2022/03/09 04:55:41;;;;;;;;;;;;;;;-7.87;52.12;102417.72;4974250;28;19926;-89
2022/03/09 04:58:06;;;;;;;;;;;;;;;-7.51;51.62;102415.81;4974137;28;20064;-89
2022/03/09 05:00:32;;;;;;;;;;;;;;;-7.12;51.09;102418.00;4999437;28;20328;-91
2022/03/09 05:02:57;;;;;;;;;;;;;;;-6.78;50.58;102426.81;4993083;28;20397;-91
2022/03/09 05:05:23;;;;;;;;;;;;;;;-6.45;49.49;102431.22;4992695;28;19926;-92
2022/03/09 05:07:48;;;;;;;;;;;;;;;-6.18;48.99;102435.25;4994248;28;19936;-89
2022/03/09 05:10:14;;;;;;;;;;;;;;;-5.91;48.06;102438.28;4992067;28;19981;-90
2022/03/09 05:12:39;;;;;;;;;;;;;;;-5.57;47.38;102441.56;4993190;28;19961;-88
2022/03/09 05:15:05;;;;;;;;;;;;;;;-5.26;46.77;102441.59;4993270;28;20012;-88
2022/03/09 05:17:30;;;;;;;;;;;;;;;-4.90;46.51;102445.53;4992952;28;20064;-89
2022/03/09 05:19:57;;;;;;;;;;;;;;;-4.52;45.40;102451.97;4992708;28;19926;-89
2022/03/09 05:22:22;;;;;;;;;;;;;;;-4.21;44.88;102456.25;4992769;28;19926;-87
2022/03/09 05:24:47;;;;;;;;;;;;;;;-3.95;44.44;102459.25;4992470;28;19926;-88
2022/03/09 05:27:13;;;;;;;;;;;;;;;-3.58;43.51;102472.75;4994308;28;19926;-92
2022/03/09 05:29:38;;;;;;;;;;;;;;;-3.31;42.53;102479.19;4994313;28;19930;-89
2022/03/09 05:32:04;;;;;;;;;;;;;;;-3.10;42.07;102478.03;5001869;28;19984;-87
2022/03/09 05:34:30;;;;;;;;;;;;;;;-2.69;40.85;102483.91;4994844;28;19952;-90
2022/03/09 05:36:55;;;;;;;;;;;;;;;-2.63;40.50;102485.16;5002592;28;19941;-90
2022/03/09 05:39:20;;;;;;;;;;;;;;;-2.63;39.83;102485.16;5008068;28;20005;-90
2022/03/09 05:41:47;;;;;;;;;;;;;;;-2.40;40.00;102489.16;5003202;28;19949;-91
2022/03/09 05:44:13;;;;;;;;;;;;;;;-2.30;39.17;102487.22;4996040;28;19965;-88
2022/03/09 05:46:38;;;;;;;;;;;;;;;-2.38;38.95;102484.47;4992618;28;19975;-92
2022/03/09 05:49:05;;;;;;;;;;;;;;;-2.53;38.61;102494.88;4994299;28;19925;-93
2022/03/09 05:51:32;;;;;;;;;;;;;;;-2.44;38.79;102482.34;4993716;28;19984;-92
2022/03/09 05:53:57;;;;;;;;;;;;;;;-2.43;38.81;102502.84;4993357;28;20293;-92
2022/03/09 05:56:23;;;;;;;;;;;;;;;-2.15;38.70;102501.84;4993353;28;19980;-93
2022/03/09 05:58:48;;;;;;;;;;;;;;;-1.93;38.22;102503.22;4993219;28;20404;-91
2022/03/09 06:01:14;;;;;;;;;;;;;;;-1.91;38.04;102513.84;4993267;28;19932;-90
2022/03/09 06:03:39;;;;;;;;;;;;;;;-1.65;37.43;102508.53;4991835;28;19937;-93
2022/03/09 06:06:05;;;;;;;;;;;;;;;-1.20;37.43;102508.41;4975785;28;19973;-92
2022/03/09 06:08:31;;;;;;;;;;;;;;;-0.77;36.42;102514.69;4993837;28;19940;-92
2022/03/09 06:10:56;;;;;;;;;;;;;;;-0.78;35.74;102521.94;4994508;28;19972;-93
2022/03/09 06:13:22;;;;;;;;;;;;;;;-0.79;35.46;102527.50;4992581;28;19976;-92
2022/03/09 06:15:49;;;;;;;;;;;;;;;-0.61;35.95;102531.81;4995288;28;19926;-91
2022/03/09 06:18:15;;;;;;;;;;;;;;;-0.41;34.93;102542.34;4991772;28;19961;-91
2022/03/09 06:20:40;;;;;;;;;;;;;;;-0.40;34.65;102539.47;5007519;28;19969;-90
2022/03/09 06:23:06;;;;;;;;;;;;;;;-0.52;34.82;102542.59;4991978;28;20028;-91
2022/03/09 06:25:31;;;;;;;;;;;;;;;-0.54;34.60;102550.88;4992617;28;19933;-92
2022/03/09 06:27:58;;;;;;;;;;;;;;;-0.34;34.68;102552.31;4973277;28;19926;-90
2022/03/09 06:30:24;;;;;;;;;;;;;;;0.01;33.96;102550.41;4973013;28;19926;-91
2022/03/09 06:32:49;;;;;;;;;;;;;;;0.11;33.53;102551.09;4981992;28;20052;-90
2022/03/09 06:35:15;;;;;;;;;;;;;;;0.06;33.18;102556.16;4991553;28;19931;-92
2022/03/09 06:37:40;;;;;;;;;;;;;;;0.16;32.81;102556.84;4991066;28;19925;-91
2022/03/09 06:40:07;;;;;;;;;;;;;;;0.45;33.00;102555.53;5006664;28;19933;-91
2022/03/09 06:42:33;;;;;;;;;;;;;;;0.63;32.03;102567.03;5006941;28;20377;-89
2022/03/09 06:44:58;;;;;;;;;;;;;;;0.67;31.80;102571.06;5007218;28;20024;-94
2022/03/09 06:47:24;;;;;;;;;;;;;;;0.85;32.12;102579.00;4975299;28;19984;-93
2022/03/09 06:49:49;;;;;;;;;;;;;;;1.23;31.48;102582.03;4973207;28;19977;-91
2022/03/09 06:52:17;;;;;;;;;;;;;;;1.72;30.97;102593.53;4979544;28;19926;-89
2022/03/09 06:54:42;;;;;;;;;;;;;;;1.99;30.21;102590.38;4987210;28;19933;-90
2022/03/09 06:57:08;;;;;;;;;;;;;;;2.20;29.98;102602.47;4993001;28;20334;-90
2022/03/09 06:59:33;;;;;;;;;;;;;;;1.72;29.45;102604.34;4996228;28;20312;-91
2022/03/09 07:01:59;;;;;;;;;;;;;;;1.34;30.41;102609.53;4996532;28;19930;-89
2022/03/09 07:04:24;;;;;;;;;;;;;;;1.45;30.01;102611.91;4996572;28;19996;-89
2022/03/09 07:06:50;;;;;;;;;;;;;;;1.23;29.05;102612.63;4995989;28;20372;-89
2022/03/09 07:09:15;;;;;;;;;;;;;;;0.65;29.05;102610.94;5011571;28;19996;-88
2022/03/09 07:11:41;;;;;;;;;;;;;;;0.48;30.27;102610.06;5001961;28;20294;-89
2022/03/09 07:14:07;;;;;;;;;;;;;;;0.68;30.27;102610.59;4976605;28;20352;-89
2022/03/09 07:16:32;;;;;;;;;;;;;;;0.74;29.87;102618.03;4976498;28;19930;-88
2022/03/09 07:18:58;;;;;;;;;;;;;;;0.89;29.10;102623.63;4976660;28;19933;-89
2022/03/09 07:21:23;;;;;;;;;;;;;;;1.11;29.23;102622.94;4979491;28;20396;-89
2022/03/09 07:23:49;;;;;;;;;;;;;;;1.56;29.57;102626.06;5010696;28;19949;-89
2022/03/09 07:26:14;;;;;;;;;;;;;;;1.38;29.30;102626.25;4995099;28;19937;-88
2022/03/09 07:28:40;;;;;;;;;;;;;;;1.14;29.36;102635.25;4995232;28;20019;-90
2022/03/09 07:31:05;;;;;;;;;;;;;;;0.97;29.02;102652.50;5006705;28;19948;-89
2022/03/09 07:33:31;;;;;;;;;;;;;;;1.23;29.15;102655.03;4995594;28;19969;-89
2022/03/09 07:35:56;;;;;;;;;;;;;;;1.45;28.75;102643.50;4995519;28;19921;-90
2022/03/09 07:38:22;;;;;;;;;;;;;;;1.47;29.07;102650.44;4995279;28;19925;-88
2022/03/09 07:40:47;;;;;;;;;;;;;;;1.86;29.02;102652.38;4994371;28;20380;-90
2022/03/09 07:43:13;;;;;;;;;;;;;;;1.69;28.34;102656.13;4997446;28;19929;-94
2022/03/09 07:45:38;;;;;;;;;;;;;;;2.14;27.77;102643.81;4999870;28;20322;-95
2022/03/09 07:48:04;;;;;;;;;;;;;;;1.79;27.64;102654.09;5000486;28;19945;-95
2022/03/09 07:50:30;;;;;;;;;;;;;;;1.71;28.15;102649.53;4999151;28;20347;-92
2022/03/09 07:52:56;;;;;;;;;;;;;;;2.19;27.31;102663.06;4990182;28;20555;-91
2022/03/09 07:55:21;;;;;;;;;;;;;;;1.67;26.44;102672.53;4995087;28;20028;-92
2022/03/09 07:57:47;;;;;;;;;;;;;;;1.42;26.76;102665.50;4996793;28;20451;-92
2022/03/09 08:00:13;;;;;;;;;;;;;;;1.37;27.13;102675.97;4994678;28;19926;-93
2022/03/09 08:02:42;;;;;;;;;;;;;;;1.26;27.26;102668.22;4995101;28;19933;-92
2022/03/09 08:05:08;;;;;;;;;;;;;;;1.01;27.23;102678.19;4999390;28;20300;-90
2022/03/09 08:07:33;;;;;;;;;;;;;;;0.94;27.35;102686.13;4981246;28;19933;-92
2022/03/09 08:09:59;;;;;;;;;;;;;;;0.91;27.70;102678.34;5010375;28;19929;-92
2022/03/09 08:12:26;;;;;;;;;;;;;;;1.06;27.18;102675.84;4995110;28;19926;-93
2022/03/09 08:14:52;;;;;;;;;;;;;;;1.30;27.72;102681.22;5009956;28;20392;-92
2022/03/09 08:17:17;;;;;;;;;;;;;;;1.54;26.78;102693.03;4997144;28;19926;-94
2022/03/09 08:19:42;;;;;;;;;;;;;;;2.15;26.19;102691.53;4999993;28;19929;-91
2022/03/09 08:22:08;;;;;;;;;;;;;;;2.17;25.46;102692.19;5008470;28;19926;-92
2022/03/09 08:24:33;;;;;;;;;;;;;;;1.84;26.26;102691.47;5003032;28;19926;-90
2022/03/09 08:26:59;;;;;;;;;;;;;;;2.02;26.01;102692.91;4999827;28;19983;-91
2022/03/09 08:29:25;;;;;;;;;;;;;;;2.91;25.37;102698.91;4979702;28;19926;-91
2022/03/09 08:31:50;;;;;;;;;;;;;;;3.20;24.65;102695.47;4994403;28;19928;-92
2022/03/09 08:34:16;;;;;;;;;;;;;;;3.70;24.36;102700.28;4994233;28;19925;-91
2022/03/09 08:36:41;;;;;;;;;;;;;;;4.11;23.94;102700.66;5009592;28;20020;-92
2022/03/09 08:39:07;;;;;;;;;;;;;;;4.09;23.70;102705.44;4994698;28;19925;-91
2022/03/09 08:41:32;;;;;;;;;;;;;;;3.73;24.10;102705.31;5009195;28;20180;-90
2022/03/09 08:43:58;;;;;;;;;;;;;;;3.88;24.10;102700.75;4993392;28;19950;-91
2022/03/09 08:46:23;;;;;;;;;;;;;;;4.07;23.91;102706.66;4976624;28;19926;-90
2022/03/09 08:48:49;;;;;;;;;;;;;;;4.44;23.40;102703.81;4993970;28;19983;-91
2022/03/09 08:51:20;;;;;;;;;;;;;;;4.08;23.39;102702.91;4993196;28;19926;-91
2022/03/09 08:53:45;;;;;;;;;;;;;;;3.81;23.06;102702.50;4992755;28;19926;-91
2022/03/09 08:56:11;;;;;;;;;;;;;;;3.32;23.27;102713.84;4994914;28;19933;-92
2022/03/09 08:58:37;;;;;;;;;;;;;;;3.67;23.04;102719.66;4993140;28;20376;-90
2022/03/09 09:01:03;;;;;;;;;;;;;;;3.92;23.00;102715.66;5008223;28;19980;-90
2022/03/09 09:03:28;;;;;;;;;;;;;;;3.49;23.03;102724.56;5009353;28;19925;-91
2022/03/09 09:05:54;;;;;;;;;;;;;;;2.76;23.57;102727.81;4995320;28;20024;-91
2022/03/09 09:08:23;;;;;;;;;;;;;;;2.34;23.96;102745.28;5004110;28;19972;-91
2022/03/09 09:14:55;;;;;;;;;;;;;;;-1.27;26.69;102757.78;4993687;28;19980;-94
2022/03/09 09:34:26;;;;;;;;;;;;;;;-4.15;32.44;102774.72;4986141;28;20015;-90
2022/03/09 09:36:54;;;;;;;;;;;;;;;-4.12;31.93;102777.13;4994218;28;19964;-90
2022/03/09 09:39:20;;;;;;;;;;;;;;;-4.14;32.29;102787.16;4993185;28;20439;-92
2022/03/09 09:41:47;;;;;;;;;;;;;;;-4.10;32.13;102780.53;5008091;28;19926;-89
2022/03/09 09:44:13;;;;;;;;;;;;;;;-4.16;31.55;102770.34;4992791;28;20068;-92
2022/03/09 09:46:39;;;;;;;;;;;;;;;-4.18;32.12;102769.59;4992630;28;20020;-91
2022/03/09 09:49:08;;;;;;;;;;;;;;;-4.27;32.51;102771.25;5007617;28;19926;-90
2022/03/09 09:51:33;;;;;;;;;;;;;;;-4.33;32.71;102785.19;4988174;28;19933;-82
2022/03/09 09:53:59;;;;;;;;;;;;;;;-4.30;32.56;102763.47;4993364;28;19990;-81
2022/03/09 09:56:25;;;;;;;;;;;;;;;-4.27;32.19;102775.78;4991273;28;19926;-82
2022/03/09 09:58:50;;;;;;;;;;;;;;;-4.44;32.51;102776.38;4991995;28;19964;-87
2022/03/09 10:01:16;;;;;;;;;;;;;;;-4.53;32.95;102785.16;4992006;28;20400;-83
2022/03/09 10:03:42;;;;;;;;;;;;;;;-4.62;33.08;102782.28;4993945;28;20036;-82
2022/03/09 10:06:07;;;;;;;;;;;;;;;-4.61;33.08;102777.78;4991900;28;19932;-82
2022/03/09 10:08:33;;;;;;;;;;;;;;;-4.63;32.92;102788.63;4997391;28;20426;-82
2022/03/09 10:10:59;;;;;;;;;;;;;;;-4.51;32.85;102783.19;4998244;28;19925;-84
2022/03/09 10:13:28;;;;;;;;;;;;;;;-4.42;32.79;102785.13;5010037;28;19926;-82
2022/03/09 10:16:12;;;;;;;;;;;;;;;-4.36;33.51;102787.25;4991960;28;19926;-81
2022/03/09 10:18:38;;;;;;;;;;;;;;;-4.34;33.41;102791.53;5000346;28;19981;-81
2022/03/09 10:21:11;;;;;;;;;;;;;;;-4.30;32.93;102789.44;5006200;28;20320;-81
2022/03/09 10:23:50;;;;;;;;;;;;;;;-4.30;32.84;102784.06;4973754;28;20312;-84
2022/03/09 10:26:15;;;;;;;;;;;;;;;-4.42;33.01;102793.16;4991756;28;19926;-85
2022/03/09 10:28:41;;;;;;;;;;;;;;;-4.43;32.96;102796.81;4992280;28;20343;-86
2022/03/09 10:31:07;;;;;;;;;;;;;;;-4.34;33.11;102796.00;4990905;28;20029;-83
2022/03/09 10:33:33;;;;;;;;;;;;;;;-4.31;32.14;102799.31;4993830;28;19926;-79
2022/03/09 10:35:58;;;;;;;;;;;;;;;-4.32;32.42;102797.63;4989619;28;20028;-85
2022/03/09 10:38:25;;;;;;;;;;;;;;;-4.36;32.54;102787.25;4991015;28;19926;-86
2022/03/09 10:40:51;;;;;;;;;;;;;;;-4.38;32.92;102798.13;4998654;28;20396;-87
2022/03/09 10:43:24;;;;;;;;;;;;;;;-4.35;32.60;102789.81;5015290;28;19925;-85
2022/03/09 10:46:08;;;;;;;;;;;;;;;-4.44;32.59;102803.16;5010624;28;19925;-86
2022/03/09 10:48:53;;;;;;;;;;;;;;;-4.46;32.69;102797.94;5018920;28;20388;-86
2022/03/09 10:51:29;;;;;;;;;;;;;;;-4.46;32.70;102802.44;5013104;28;19976;-84
2022/03/09 10:53:54;;;;;;;;;;;;;;;-4.43;32.95;102807.53;5023376;28;19925;-85
2022/03/09 10:56:20;;;;;;;;;;;;;;;-4.38;32.76;102805.31;5018146;28;19929;-86
2022/03/09 10:58:45;;;;;;;;;;;;;;;-4.44;32.53;102804.00;5021325;28;19979;-86
2022/03/09 11:01:15;;;;;;;;;;;;;;;-4.33;32.40;102805.78;5022605;28;19950;-86
2022/03/09 11:03:43;;;;;;;;;;;;;;;-4.20;32.82;102795.69;5022709;28;20403;-86
2022/03/09 11:06:09;;;;;;;;;;;;;;;-4.17;33.23;102802.63;5025005;28;19972;-85
2022/03/09 11:08:35;;;;;;;;;;;;;;;-4.16;32.39;102802.50;5024148;28;19926;-86
2022/03/09 11:11:00;;;;;;;;;;;;;;;-4.14;32.44;102810.41;5018131;28;20368;-86
2022/03/09 11:13:26;;;;;;;;;;;;;;;-4.19;32.85;102813.47;5015659;28;19972;-87
2022/03/09 11:15:53;;;;;;;;;;;;;;;-4.19;32.73;102820.66;5015354;28;20396;-85
2022/03/09 11:18:20;;;;;;;;;;;;;;;-4.17;32.83;102813.34;4994642;28;20389;-87
2022/03/09 11:20:46;;;;;;;;;;;;;;;-4.11;33.06;102828.91;4975212;28;19976;-87
2022/03/09 11:23:12;;;;;;;;;;;;;;;-4.00;33.14;102818.94;4975410;28;19926;-89
2022/03/09 11:25:38;;;;;;;;;;;;;;;-3.96;32.91;102831.13;4975425;28;19926;-88
2022/03/09 11:28:04;;;;;;;;;;;;;;;-4.00;32.41;102836.88;5004520;28;19925;-82
2022/03/09 11:30:30;;;;;;;;;;;;;;;-4.01;32.61;102821.75;5008801;28;19926;-88
2022/03/09 11:32:56;;;;;;;;;;;;;;;-3.97;32.96;102818.72;5009550;28;19968;-91
2022/03/09 11:35:35;;;;;;;;;;;;;;;-3.95;32.58;102815.91;4991570;28;20024;-84
2022/03/09 11:38:00;;;;;;;;;;;;;;;-3.88;32.70;102818.88;4995488;28;20065;-90
2022/03/09 11:40:26;;;;;;;;;;;;;;;-3.89;33.11;102826.06;5000625;28;20072;-87
2022/03/09 11:42:51;;;;;;;;;;;;;;;-3.91;33.01;102822.69;5001829;28;19926;-82
2022/03/09 11:45:17;;;;;;;;;;;;;;;-3.96;33.13;102831.13;4991359;28;20436;-85
2022/03/09 11:47:58;;;;;;;;;;;;;;;-3.92;33.24;102834.41;4991101;28;20032;-83
2022/03/09 11:50:24;;;;;;;;;;;;;;;-3.88;32.85;102833.13;4990222;28;19926;-83
2022/03/09 11:52:53;;;;;;;;;;;;;;;-3.85;33.10;102840.06;4993306;28;20313;-86
2022/03/09 11:55:19;;;;;;;;;;;;;;;-3.88;33.06;102845.69;4994977;28;19934;-83
2022/03/09 11:57:45;;;;;;;;;;;;;;;-3.96;33.35;102855.28;4993145;28;19972;-79
2022/03/09 12:00:12;;;;;;;;;;;;;;;-3.93;33.51;102843.44;4991674;28;19969;-85
2022/03/09 12:03:09;;;;;;;;;;;;;;;-3.85;32.58;102856.16;4993747;28;19948;-83
2022/03/09 12:05:38;;;;;;;;;;;;;;;-3.91;33.51;102862.06;4994721;28;20407;-84
2022/03/09 12:08:09;;;;;;;;;;;;;;;-3.92;33.71;102855.00;4989399;28;20027;-84
2022/03/09 12:10:53;;;;;;;;;;;;;;;-3.92;33.48;102860.38;4994093;28;19933;-88
2022/03/09 12:13:19;;;;;;;;;;;;;;;-3.88;33.37;102867.16;5031985;28;20044;-86
2022/03/09 12:16:14;;;;;;;;;;;;;;;-3.79;32.82;102861.88;4999944;28;20463;-87
2022/03/09 12:18:44;;;;;;;;;;;;;;;-3.75;33.60;102854.41;5004618;28;19932;-85
2022/03/09 12:21:11;;;;;;;;;;;;;;;-3.77;33.29;102862.56;5010815;28;19925;-85
2022/03/09 12:23:56;;;;;;;;;;;;;;;-3.78;32.72;102868.06;5003362;28;19926;-85
2022/03/09 12:26:37;;;;;;;;;;;;;;;-3.74;32.72;102864.16;4993816;28;19969;-86
2022/03/09 12:29:03;;;;;;;;;;;;;;;-3.68;32.88;102863.59;4995127;28;19926;-85
2022/03/09 12:31:30;;;;;;;;;;;;;;;-3.67;32.61;102866.16;4993867;28;19973;-84
2022/03/09 12:33:55;;;;;;;;;;;;;;;-3.67;32.25;102860.78;5001959;28;19925;-87
2022/03/09 12:36:21;;;;;;;;;;;;;;;-3.65;32.37;102857.97;4974893;28;19934;-81
2022/03/09 12:38:48;;;;;;;;;;;;;;;-3.60;31.91;102853.06;4989905;28;19961;-82
2022/03/09 12:41:26;;;;;;;;;;;;;;;-3.55;31.93;102858.88;4989429;28;19926;-83
2022/03/09 12:43:52;;;;;;;;;;;;;;;-3.53;31.85;102851.53;4989445;28;20277;-79
2022/03/09 12:46:18;;;;;;;;;;;;;;;-3.57;31.46;102847.44;4992131;28;19926;-83
2022/03/09 12:48:44;;;;;;;;;;;;;;;-3.55;32.41;102861.56;4993095;28;19926;-83
2022/03/09 12:51:09;;;;;;;;;;;;;;;-3.56;32.18;102859.84;4991674;28;19925;-83
2022/03/09 12:53:36;;;;;;;;;;;;;;;-3.65;32.13;102858.81;4992216;28;19932;-83
2022/03/09 12:56:17;;;;;;;;;;;;;;;-3.72;31.53;102860.34;4988800;28;20360;-83